Clermont, KY

10:43 AM EST on January 31, 2015 (GMT -0500)
Hwy 245 & I65 - Clermont, KY | Change Station
CLOSE
Current Station
Personal Weather Station
Location: Shepherdsville, KY
Elevation: 558 ft
Nearby Weather Stations

Elev 558 ft 37.91 °N, 85.68 °W | Updated 32 seconds ago

Partly Cloudy
Partly Cloudy
33.3 °F
Feels Like 33 °F
N
1.0
Wind Variable Wind from South
Gusts 2.0 mph

Today
High -- | Low -- °F
--% Chance of Precip.
Yesterday
High -- | Low -- °F
Precip. -- in
7:47 AM 6:04 PM
Waxing Gibbous, 90% visible
Pressure 30.42 in
Visibility 9.0 miles
Clouds Few 13000 ft
Overcast 25000 ft
Windchill 33 °F
Dew Point 25 °F
Humidity 71%
Rainfall 0.00 in
Snow Depth Not available.
UV 0.6 out of 12
Pollen .30 out of 12
Air Quality Not available.
Flu Activity Not available.
METAR KSDF 311456Z 00000KT 9SM FEW130 OVC250 M02/M07 A3040 RMK AO2 SLP301 T10221067 51007

More Conditions Fewer Conditions

Pressure 30.42 in
Visibility 9.0 miles
Clouds Few 13000 ft
Overcast 25000 ft
Windchill 33 °F
Dew Point 25 °F
Humidity 71%
Rainfall 0.00 in
Snow Depth Not available.
UV 0.6 out of 12
Pollen .30 out of 12
Air Quality Not available.
Flu Activity Not available.
METAR KSDF 311456Z 00000KT 9SM FEW130 OVC250 M02/M07 A3040 RMK AO2 SLP301 T10221067 51007

More Conditions Fewer Conditions

10-Day Weather Forecast

Almanac

Astronomy

Jan. 31, 2015 Rise Set
Actual Time
Civil Twilight
Nautical Twilight
Astronomical Twilight
Moon
Length of Visible Light
Length of Day
Tomorrow will be .
, % of the Moon is Illuminated

Today's Extremes

State Highs State Lows

Community

WunderPhotos

Upload Photos

1,792,094 photos uploaded!

WunderBlogs® & News

Nearby

Air Quality

  Air Quality AQ Index Pollutant
Not available.

Snow Depth

Station Depth Elevation

Earthquake Activity

City Distance Mag. Time & Date
Minimum magnitude displayed is 2.5.

Coastal Water Temperatures

Place Temperature

Nearby Weather Stations